Time;durP1;ratioP1;P1;durP2;ratioP2;P2;SDS_P1;SDS_P2;PMS_P1;PMS_P2;Temp;Humidity;BMP_temperature;BMP_pressure;BME280_temperature;BME280_humidity;BME280_pressure;Samples;Min_cycle;Max_cycle;Signal;HPM_P1;HPM_P2
2023/01/16 00:00:50;;;;;;;4.70;0.28;;;5.70;99.90;;;;;;4995576;28;20176;-75
2023/01/16 00:03:16;;;;;;;2.38;0.50;;;5.70;99.90;;;;;;4995039;28;20042;-75
2023/01/16 00:05:43;;;;;;;3.50;0.88;;;5.70;99.90;;;;;;5006124;28;20080;-75
2023/01/16 00:08:09;;;;;;;1.33;0.47;;;5.60;99.90;;;;;;4994331;28;20034;-75
2023/01/16 00:10:35;;;;;;;1.17;0.30;;;5.50;99.90;;;;;;4995094;28;20022;-75
2023/01/16 00:13:01;;;;;;;0.57;0.47;;;5.50;99.90;;;;;;5004236;28;20026;-76
2023/01/16 00:15:26;;;;;;;0.47;0.30;;;5.50;99.90;;;;;;4987266;28;20085;-75
2023/01/16 00:17:52;;;;;;;6.10;1.00;;;5.50;99.90;;;;;;4994257;28;20038;-75
2023/01/16 00:20:18;;;;;;;1.17;0.88;;;5.40;99.90;;;;;;4994965;28;20026;-76
2023/01/16 00:22:44;;;;;;;0.60;0.20;;;5.40;99.90;;;;;;5004044;28;20118;-75
2023/01/16 00:25:10;;;;;;;3.42;0.73;;;5.40;99.90;;;;;;5001801;28;20026;-75
2023/01/16 00:27:36;;;;;;;7.07;1.17;;;5.30;99.90;;;;;;4983909;28;20093;-76
2023/01/16 00:30:03;;;;;;;1.02;0.57;;;5.30;99.90;;;;;;5001703;28;20469;-75
2023/01/16 00:32:29;;;;;;;1.38;0.55;;;5.30;99.90;;;;;;4993913;28;20772;-76
2023/01/16 00:34:54;;;;;;;0.68;0.35;;;5.20;99.90;;;;;;4993401;28;20065;-75
2023/01/16 00:37:20;;;;;;;2.17;0.40;;;5.20;99.90;;;;;;4994085;28;20490;-75
2023/01/16 00:39:46;;;;;;;3.20;0.43;;;5.20;99.90;;;;;;4994430;28;20088;-75
2023/01/16 00:42:11;;;;;;;0.95;0.60;;;5.20;99.90;;;;;;4993687;28;20109;-75
2023/01/16 00:44:37;;;;;;;1.13;0.50;;;5.10;99.90;;;;;;4994894;28;20030;-75
2023/01/16 00:47:04;;;;;;;3.67;0.35;;;5.10;99.90;;;;;;5005286;28;20096;-75
2023/01/16 00:49:29;;;;;;;0.47;0.40;;;5.10;99.90;;;;;;4985075;28;20030;-75
2023/01/16 00:51:55;;;;;;;2.40;0.50;;;5.10;99.90;;;;;;5003391;28;20034;-75
2023/01/16 00:54:21;;;;;;;3.90;0.52;;;5.00;99.90;;;;;;4984983;28;20030;-75
2023/01/16 00:56:47;;;;;;;3.60;1.23;;;5.00;99.90;;;;;;4987068;28;20106;-75
2023/01/16 00:59:12;;;;;;;0.50;0.25;;;4.90;99.90;;;;;;4993674;28;20053;-75
2023/01/16 01:01:39;;;;;;;1.65;0.68;;;4.90;99.90;;;;;;4992194;28;20026;-75
2023/01/16 01:04:04;;;;;;;0.30;0.30;;;4.90;99.90;;;;;;4984913;28;20041;-75
2023/01/16 01:06:30;;;;;;;1.05;0.43;;;4.90;99.90;;;;;;4992116;28;20030;-74
2023/01/16 01:08:56;;;;;;;2.78;0.65;;;4.80;99.90;;;;;;4994211;28;20030;-75
2023/01/16 01:11:22;;;;;;;1.08;0.65;;;4.90;99.90;;;;;;4993115;28;20541;-75
2023/01/16 01:13:48;;;;;;;0.22;0.22;;;4.80;99.90;;;;;;4993910;28;20506;-74
2023/01/16 01:16:15;;;;;;;2.97;0.95;;;4.80;99.90;;;;;;5008531;28;20073;-75
2023/01/16 01:18:40;;;;;;;1.35;0.57;;;4.70;99.90;;;;;;4993474;28;20034;-75
2023/01/16 01:21:07;;;;;;;1.95;0.30;;;4.70;99.90;;;;;;5007749;28;20034;-75
2023/01/16 01:23:33;;;;;;;8.60;0.52;;;4.70;99.90;;;;;;5000513;28;20030;-75
2023/01/16 01:26:05;;;;;;;1.35;0.52;;;4.70;99.90;;;;;;5006794;28;20045;-75
2023/01/16 01:28:31;;;;;;;2.92;0.57;;;4.70;99.90;;;;;;5000620;28;20093;-75
2023/01/16 01:30:57;;;;;;;0.63;0.50;;;4.70;99.90;;;;;;5006189;28;20070;-76
2023/01/16 01:33:23;;;;;;;2.45;1.08;;;4.70;99.90;;;;;;4992600;28;20057;-76
2023/01/16 01:35:49;;;;;;;2.15;1.23;;;4.60;99.90;;;;;;4993826;28;20487;-76
2023/01/16 01:38:14;;;;;;;0.30;0.25;;;4.70;99.90;;;;;;4992474;28;20372;-75
2023/01/16 01:40:40;;;;;;;5.03;0.93;;;4.70;99.90;;;;;;4987936;28;20045;-75
2023/01/16 01:43:14;;;;;;;0.55;0.30;;;4.70;99.90;;;;;;5002639;28;20058;-75
2023/01/16 01:45:53;;;;;;;0.75;0.40;;;4.80;99.90;;;;;;4987795;28;20061;-76
2023/01/16 01:48:30;;;;;;;1.00;0.75;;;4.70;99.90;;;;;;5001996;28;20035;-75
2023/01/16 01:51:08;;;;;;;1.10;0.50;;;4.70;99.90;;;;;;5005606;28;20402;-76
2023/01/16 01:54:08;;;;;;;1.35;0.47;;;4.70;99.90;;;;;;5000182;28;20042;-75
2023/01/16 01:56:45;;;;;;;3.83;0.57;;;4.70;99.90;;;;;;4972458;28;20046;-76
2023/01/16 01:59:20;;;;;;;3.40;0.43;;;4.70;99.90;;;;;;4967410;28;20390;-76
2023/01/16 02:01:46;;;;;;;2.83;0.63;;;4.70;99.90;;;;;;5006596;28;20105;-76
2023/01/16 02:04:23;;;;;;;2.70;0.32;;;4.70;99.90;;;;;;4990826;28;21044;-74
2023/01/16 02:06:55;;;;;;;0.75;0.32;;;4.70;99.90;;;;;;4982775;28;20506;-75
2023/01/16 02:09:23;;;;;;;0.73;0.55;;;4.80;99.90;;;;;;4986770;28;20038;-75
2023/01/16 02:11:54;;;;;;;1.55;0.10;;;4.90;99.90;;;;;;4984742;28;20039;-75
2023/01/16 02:14:21;;;;;;;;;;;4.90;99.90;;;;;;4973701;28;20069;-74
2023/01/16 02:20:17;;;;;;;2.10;1.05;;;5.00;99.90;;;;;;4982028;28;20092;-76
2023/01/16 02:23:06;;;;;;;0.30;0.30;;;5.10;99.90;;;;;;4991535;28;20038;-76
2023/01/16 02:26:26;;;;;;;0.22;0.22;;;5.10;99.90;;;;;;4973118;28;20487;-75
2023/01/16 02:29:29;;;;;;;0.20;0.20;;;5.20;99.90;;;;;;4969477;28;20114;-75
2023/01/16 02:32:39;;;;;;;5.78;0.38;;;5.20;99.90;;;;;;4971961;28;20535;-75
2023/01/16 02:35:33;;;;;;;0.30;0.20;;;5.20;99.90;;;;;;4972508;28;20034;-76
2023/01/16 02:38:32;;;;;;;0.65;0.65;;;5.10;99.90;;;;;;4971513;28;20122;-75
2023/01/16 02:41:32;;;;;;;0.47;0.30;;;5.10;99.90;;;;;;4963338;28;20102;-75
2023/01/16 02:44:29;;;;;;;3.60;0.40;;;5.10;99.90;;;;;;4965512;28;20027;-75
2023/01/16 02:47:19;;;;;;;1.55;0.65;;;5.00;99.90;;;;;;4937711;28;20045;-75
2023/01/16 02:50:11;;;;;;;1.75;0.28;;;5.00;99.90;;;;;;4963438;28;20110;-74
2023/01/16 02:52:50;;;;;;;2.50;0.47;;;5.10;99.90;;;;;;4971706;28;20086;-75
2023/01/16 02:55:37;;;;;;;0.10;0.10;;;5.00;99.90;;;;;;4963660;28;20026;-75
2023/01/16 02:58:06;;;;;;;1.75;1.15;;;5.00;99.90;;;;;;4971564;28;20043;-75
2023/01/16 03:00:34;;;;;;;0.75;0.43;;;5.10;99.90;;;;;;4965719;28;20106;-75
2023/01/16 03:03:00;;;;;;;1.00;0.38;;;5.00;99.90;;;;;;4962209;28;20033;-75
2023/01/16 03:05:31;;;;;;;1.60;0.52;;;5.00;99.90;;;;;;4964626;28;20038;-75
2023/01/16 03:08:02;;;;;;;0.75;0.50;;;5.00;99.90;;;;;;4962045;28;20084;-75
2023/01/16 03:11:07;;;;;;;0.50;0.30;;;5.00;99.90;;;;;;4964752;28;20031;-75
2023/01/16 03:13:54;;;;;;;1.27;0.35;;;5.00;99.90;;;;;;4971984;28;20294;-75
2023/01/16 03:16:32;;;;;;;1.45;0.30;;;5.00;99.90;;;;;;4956248;28;20057;-75
2023/01/16 03:19:32;;;;;;;0.55;0.30;;;4.90;99.90;;;;;;4971865;28;20546;-75
2023/01/16 03:22:24;;;;;;;0.40;0.30;;;4.90;99.90;;;;;;4971689;28;20043;-75
2023/01/16 03:25:26;;;;;;;5.75;2.03;;;4.90;99.90;;;;;;4972126;28;20034;-75
2023/01/16 03:28:27;;;;;;;3.10;0.75;;;4.90;99.90;;;;;;4961913;28;20060;-75
2023/01/16 03:30:59;;;;;;;0.30;0.13;;;4.90;99.90;;;;;;4971428;28;20031;-74
2023/01/16 03:34:02;;;;;;;5.97;0.38;;;4.90;99.90;;;;;;4963234;28;20046;-75
2023/01/16 03:37:13;;;;;;;7.78;0.63;;;4.90;99.90;;;;;;4955481;28;20482;-75
2023/01/16 03:39:46;;;;;;;;;;;4.90;99.90;;;;;;4967716;28;20494;-75
2023/01/16 03:43:00;;;;;;;;;;;4.80;99.90;;;;;;4972103;28;20277;-75
2023/01/16 03:46:00;;;;;;;0.80;0.20;;;4.80;99.90;;;;;;4965511;28;19910;-75
2023/01/16 03:48:37;;;;;;;5.28;1.50;;;4.70;99.90;;;;;;4941172;28;20050;-75
2023/01/16 03:51:08;;;;;;;3.75;1.02;;;4.80;99.90;;;;;;4968638;28;20156;-75
2023/01/16 03:53:55;;;;;;;4.57;0.35;;;4.80;99.90;;;;;;4946788;28;20521;-75
2023/01/16 03:56:43;;;;;;;0.45;0.30;;;4.80;99.90;;;;;;4940392;28;20035;-75
2023/01/16 03:59:10;;;;;;;1.02;0.52;;;4.80;99.90;;;;;;4962702;28;20030;-75
2023/01/16 04:02:03;;;;;;;0.28;0.13;;;4.80;99.90;;;;;;4935047;29;20027;-75
2023/01/16 04:04:40;;;;;;;0.20;0.10;;;4.80;99.90;;;;;;4964391;28;20039;-75
2023/01/16 04:07:46;;;;;;;1.52;0.22;;;4.80;99.90;;;;;;4970948;28;20039;-75
2023/01/16 04:10:34;;;;;;;3.28;0.70;;;4.90;99.90;;;;;;4931136;28;20050;-75
2023/01/16 04:13:08;;;;;;;0.95;0.80;;;5.00;99.90;;;;;;4938854;28;20515;-75
2023/01/16 04:15:39;;;;;;;1.60;0.55;;;5.10;99.90;;;;;;4971644;28;20046;-75
2023/01/16 04:18:05;;;;;;;1.85;0.68;;;5.00;99.90;;;;;;4960416;28;20035;-75
2023/01/16 04:20:32;;;;;;;0.35;0.25;;;5.10;99.90;;;;;;4964587;28;20133;-75
2023/01/16 04:22:58;;;;;;;2.17;1.17;;;5.10;99.90;;;;;;4945546;28;20027;-75
2023/01/16 04:25:24;;;;;;;5.30;0.63;;;5.20;99.90;;;;;;4971608;28;20034;-75
2023/01/16 04:27:49;;;;;;;1.08;0.47;;;5.20;99.90;;;;;;4970631;28;20039;-75
2023/01/16 04:30:15;;;;;;;0.43;0.20;;;5.20;99.90;;;;;;4971850;28;20058;-75
2023/01/16 04:32:42;;;;;;;0.20;0.20;;;5.20;99.90;;;;;;4961606;28;20509;-76
2023/01/16 04:35:09;;;;;;;1.70;0.60;;;5.20;99.90;;;;;;4958929;28;20039;-75
2023/01/16 04:37:35;;;;;;;3.20;0.30;;;5.20;99.90;;;;;;4957898;28;20392;-75
2023/01/16 04:40:01;;;;;;;0.95;0.60;;;5.20;99.90;;;;;;4969542;28;20097;-75
2023/01/16 04:42:27;;;;;;;5.10;0.60;;;5.30;99.90;;;;;;4973221;28;20039;-75
2023/01/16 04:44:53;;;;;;;6.70;1.40;;;5.40;99.90;;;;;;4965730;28;20023;-75
2023/01/16 04:47:18;;;;;;;7.57;1.13;;;5.40;99.90;;;;;;4974214;28;20049;-75
2023/01/16 04:49:44;;;;;;;0.20;0.20;;;5.50;99.90;;;;;;4965577;28;20034;-76
2023/01/16 04:52:12;;;;;;;2.13;0.80;;;5.50;99.90;;;;;;4974621;28;20043;-75
2023/01/16 04:54:38;;;;;;;1.60;0.47;;;5.40;99.90;;;;;;4965610;28;20603;-75
2023/01/16 04:57:05;;;;;;;1.30;0.20;;;5.40;99.90;;;;;;4974061;28;20122;-75
2023/01/16 04:59:30;;;;;;;0.52;0.20;;;5.40;99.90;;;;;;4974688;28;20030;-75
2023/01/16 05:01:56;;;;;;;1.08;0.32;;;5.40;99.90;;;;;;4973937;28;20035;-75
2023/01/16 05:04:22;;;;;;;3.60;0.63;;;5.40;99.90;;;;;;4965118;28;20027;-75
2023/01/16 05:06:48;;;;;;;0.10;0.10;;;5.30;99.90;;;;;;4973509;28;20514;-75
2023/01/16 05:09:14;;;;;;;0.68;0.60;;;5.30;99.90;;;;;;4974164;28;20169;-75
2023/01/16 05:11:40;;;;;;;1.85;0.40;;;5.20;99.90;;;;;;4973949;28;20113;-75
2023/01/16 05:14:07;;;;;;;0.63;0.40;;;5.20;99.90;;;;;;4973706;28;20109;-75
2023/01/16 05:16:35;;;;;;;0.57;0.20;;;5.10;99.90;;;;;;4973109;28;20435;-75
2023/01/16 05:19:01;;;;;;;0.50;0.28;;;5.10;99.90;;;;;;4964663;28;20509;-75
2023/01/16 05:21:27;;;;;;;0.82;0.50;;;5.10;99.90;;;;;;4973654;28;20113;-75
2023/01/16 05:23:52;;;;;;;0.10;0.10;;;5.10;99.90;;;;;;4964322;28;20387;-75
2023/01/16 05:26:18;;;;;;;0.80;0.45;;;5.10;99.90;;;;;;4971239;28;20057;-74
2023/01/16 05:28:44;;;;;;;1.10;0.50;;;5.00;99.90;;;;;;4968143;28;20080;-74
2023/01/16 05:31:10;;;;;;;0.38;0.30;;;5.00;99.90;;;;;;4942309;28;20151;-74
2023/01/16 05:33:36;;;;;;;0.88;0.52;;;5.00;99.90;;;;;;4990596;28;20463;-74
2023/01/16 05:36:02;;;;;;;0.25;0.25;;;5.00;99.90;;;;;;4988486;28;20110;-72
2023/01/16 05:38:28;;;;;;;0.90;0.45;;;5.00;99.90;;;;;;4975351;28;20027;-72
2023/01/16 05:40:54;;;;;;;0.68;0.32;;;5.00;99.90;;;;;;4992337;28;20060;-71
2023/01/16 05:43:19;;;;;;;2.60;0.52;;;5.00;99.90;;;;;;4992397;28;20386;-71
2023/01/16 05:45:45;;;;;;;0.20;0.13;;;5.10;99.90;;;;;;4979510;28;20034;-73
2023/01/16 05:48:11;;;;;;;6.63;0.40;;;5.10;99.90;;;;;;4991271;28;20478;-72
2023/01/16 05:50:37;;;;;;;1.00;0.45;;;5.20;99.90;;;;;;4992788;28;20166;-72
2023/01/16 05:53:03;;;;;;;0.17;0.17;;;5.20;99.90;;;;;;4991682;28;20022;-73
2023/01/16 05:55:29;;;;;;;2.55;0.63;;;5.20;99.90;;;;;;4992636;28;20030;-71
2023/01/16 05:57:54;;;;;;;0.88;0.25;;;5.20;99.90;;;;;;4979171;28;20034;-71
2023/01/16 06:00:20;;;;;;;0.10;0.10;;;5.20;99.90;;;;;;4993034;28;20041;-73
2023/01/16 06:02:46;;;;;;;0.65;0.30;;;5.20;99.90;;;;;;4991667;28;20030;-71
2023/01/16 06:05:13;;;;;;;0.55;0.55;;;5.20;99.90;;;;;;4993942;28;20442;-71
2023/01/16 06:07:41;;;;;;;0.13;0.13;;;5.20;99.90;;;;;;4962823;28;20117;-72
2023/01/16 06:10:09;;;;;;;4.85;0.85;;;5.20;99.90;;;;;;4975610;28;20034;-71
2023/01/16 06:12:35;;;;;;;0.08;0.08;;;5.20;99.90;;;;;;4994833;28;20081;-71
2023/01/16 06:15:01;;;;;;;1.70;0.65;;;5.30;99.90;;;;;;4975578;28;20034;-71
2023/01/16 06:17:26;;;;;;;0.20;0.20;;;5.20;99.90;;;;;;4979059;28;20030;-72
2023/01/16 06:19:52;;;;;;;1.65;0.30;;;5.10;99.90;;;;;;4992025;28;20027;-72
2023/01/16 06:22:19;;;;;;;0.10;0.10;;;5.10;99.90;;;;;;4964984;28;20449;-72
2023/01/16 06:24:44;;;;;;;1.38;0.30;;;5.10;99.90;;;;;;4974612;28;20027;-70
2023/01/16 06:27:10;;;;;;;0.28;0.28;;;5.10;99.90;;;;;;4966000;28;20105;-72
2023/01/16 06:29:38;;;;;;;1.02;0.57;;;5.10;99.90;;;;;;4992075;28;20038;-71
2023/01/16 06:32:04;;;;;;;0.13;0.13;;;5.10;99.90;;;;;;4988028;28;20037;-72
2023/01/16 06:34:30;;;;;;;0.40;0.28;;;5.10;99.90;;;;;;4991564;28;20129;-72
2023/01/16 06:36:55;;;;;;;0.52;0.43;;;5.00;99.90;;;;;;4989404;28;20117;-70
2023/01/16 06:39:21;;;;;;;0.65;0.40;;;5.00;99.90;;;;;;4991580;28;20106;-71
2023/01/16 06:41:47;;;;;;;0.17;0.17;;;5.00;99.90;;;;;;4990983;28;20046;-71
2023/01/16 06:44:12;;;;;;;0.35;0.35;;;4.90;99.90;;;;;;4991742;28;20027;-70
2023/01/16 06:46:38;;;;;;;0.17;0.17;;;5.00;99.90;;;;;;4980858;28;20034;-70
2023/01/16 06:49:03;;;;;;;1.88;0.30;;;5.00;99.90;;;;;;4991171;28;20100;-72
2023/01/16 06:51:29;;;;;;;1.20;0.80;;;4.90;99.90;;;;;;4981289;28;20074;-70
2023/01/16 06:53:55;;;;;;;1.55;0.63;;;5.00;99.90;;;;;;4990037;28;20049;-70
2023/01/16 06:56:21;;;;;;;1.65;0.70;;;5.00;99.90;;;;;;4990163;28;20038;-68
2023/01/16 06:58:46;;;;;;;1.20;0.40;;;5.00;99.90;;;;;;4991157;28;20467;-69
2023/01/16 07:01:12;;;;;;;0.30;0.30;;;5.00;99.90;;;;;;4990113;28;20037;-70
2023/01/16 07:03:38;;;;;;;0.30;0.20;;;4.90;99.90;;;;;;4991003;28;20069;-71
2023/01/16 07:06:04;;;;;;;0.40;0.30;;;4.90;99.90;;;;;;4990120;28;20054;-68
2023/01/16 07:08:30;;;;;;;8.20;0.88;;;4.90;99.90;;;;;;4973494;28;20398;-69
2023/01/16 07:11:00;;;;;;;0.82;0.45;;;5.00;99.90;;;;;;4959775;28;20029;-68
2023/01/16 07:13:28;;;;;;;1.25;1.05;;;4.90;99.90;;;;;;4990152;28;20035;-68
2023/01/16 07:24:18;;;;;;;1.90;0.43;;;5.10;99.90;;;;;;4963268;28;20034;-69
2023/01/16 07:26:50;;;;;;;5.15;1.23;;;5.20;99.90;;;;;;4980290;28;20551;-68
2023/01/16 07:29:15;;;;;;;1.40;0.68;;;5.20;99.90;;;;;;4965097;28;20049;-69
2023/01/16 07:31:41;;;;;;;3.05;0.90;;;5.30;99.90;;;;;;4964618;28;20494;-71
2023/01/16 07:34:07;;;;;;;1.13;0.60;;;5.30;99.90;;;;;;4962628;28;20610;-70
2023/01/16 07:36:33;;;;;;;1.60;0.43;;;5.30;99.90;;;;;;4963447;28;20554;-68
2023/01/16 07:38:58;;;;;;;0.68;0.55;;;5.30;99.90;;;;;;4966048;28;20030;-68
2023/01/16 07:41:24;;;;;;;0.65;0.47;;;5.30;99.90;;;;;;4983584;28;20483;-76
2023/01/16 07:43:50;;;;;;;0.85;0.20;;;5.20;99.90;;;;;;4963995;28;20031;-75
2023/01/16 07:46:16;;;;;;;1.13;0.60;;;5.20;99.90;;;;;;4963708;28;20034;-74
2023/01/16 07:48:41;;;;;;;1.02;0.70;;;5.10;99.90;;;;;;4963035;28;20653;-75
2023/01/16 07:51:07;;;;;;;3.03;0.47;;;5.10;99.90;;;;;;4979737;28;20041;-74
2023/01/16 07:53:33;;;;;;;1.73;0.85;;;5.10;99.90;;;;;;4976162;28;20114;-75
2023/01/16 07:56:01;;;;;;;0.65;0.15;;;5.10;99.90;;;;;;4978048;28;20042;-73
2023/01/16 07:58:29;;;;;;;0.10;0.10;;;5.10;99.90;;;;;;4977607;28;20585;-74
2023/01/16 08:00:57;;;;;;;2.63;2.10;;;5.00;99.90;;;;;;4981933;28;20508;-74
2023/01/16 08:03:24;;;;;;;0.20;0.20;;;5.00;99.90;;;;;;4971168;28;20108;-74
2023/01/16 08:05:55;;;;;;;0.60;0.22;;;5.10;99.90;;;;;;4977826;28;20035;-73
2023/01/16 08:08:20;;;;;;;0.08;0.08;;;5.10;99.90;;;;;;4971431;28;20053;-74
2023/01/16 08:10:46;;;;;;;0.05;0.05;;;5.10;99.90;;;;;;4947398;28;20050;-73
2023/01/16 08:13:12;;;;;;;0.30;0.30;;;5.10;99.90;;;;;;4985469;28;20045;-73
2023/01/16 08:15:37;;;;;;;2.70;0.40;;;5.10;99.90;;;;;;4991650;28;20065;-74
2023/01/16 08:18:03;;;;;;;0.47;0.22;;;5.10;99.90;;;;;;4992732;28;20038;-73
2023/01/16 08:20:29;;;;;;;0.50;0.15;;;5.20;99.90;;;;;;4994266;28;20061;-75
2023/01/16 08:22:56;;;;;;;0.30;0.30;;;5.20;99.90;;;;;;4993522;28;20044;-73
2023/01/16 08:25:24;;;;;;;0.45;0.20;;;5.20;99.90;;;;;;4994149;28;20129;-72
2023/01/16 08:27:50;;;;;;;0.25;0.20;;;5.30;99.90;;;;;;4982114;28;20060;-72
2023/01/16 08:30:17;;;;;;;1.25;0.28;;;5.40;99.90;;;;;;4991622;28;20034;-74
2023/01/16 08:32:43;;;;;;;0.50;0.20;;;5.40;99.90;;;;;;4993248;28;20482;-74
2023/01/16 08:35:09;;;;;;;0.43;0.43;;;5.40;99.90;;;;;;4993962;28;20045;-74
2023/01/16 08:37:35;;;;;;;0.47;0.47;;;5.50;99.90;;;;;;4990917;28;20030;-73
2023/01/16 08:40:03;;;;;;;0.28;0.28;;;5.60;99.90;;;;;;4990459;28;20027;-74
2023/01/16 08:53:33;;;;;;;1.00;0.55;;;5.50;99.90;;;;;;4969465;28;20096;-73
2023/01/16 08:55:58;;;;;;;0.98;0.52;;;5.40;99.90;;;;;;4966139;28;20483;-73
2023/01/16 08:58:24;;;;;;;0.57;0.30;;;5.40;99.90;;;;;;4989976;28;20065;-73
2023/01/16 09:00:50;;;;;;;4.70;0.57;;;5.40;99.90;;;;;;4993594;28;20027;-73
2023/01/16 09:03:19;;;;;;;2.80;0.43;;;5.30;99.90;;;;;;4993076;28;20022;-73
2023/01/16 09:05:45;;;;;;;1.27;0.40;;;5.30;99.90;;;;;;4992871;28;20483;-72
2023/01/16 09:08:11;;;;;;;2.80;1.02;;;5.30;99.90;;;;;;4992640;28;20041;-72
2023/01/16 09:10:37;;;;;;;0.75;0.43;;;5.20;99.90;;;;;;4992921;28;20031;-71
2023/01/16 09:15:47;;;;;;;0.10;0.10;;;5.20;99.90;;;;;;4992858;28;20065;-72
2023/01/16 09:18:13;;;;;;;0.70;0.32;;;5.20;99.90;;;;;;4976740;28;20482;-71
2023/01/16 09:20:39;;;;;;;0.10;0.10;;;5.20;99.90;;;;;;4992500;28;20121;-73
2023/01/16 09:23:05;;;;;;;9.85;0.52;;;5.10;99.90;;;;;;4974233;28;20546;-72
2023/01/16 09:25:32;;;;;;;0.73;0.35;;;5.10;99.90;;;;;;4992330;28;20077;-73
2023/01/16 09:27:59;;;;;;;1.05;0.20;;;5.10;99.90;;;;;;4992680;28;20029;-73
2023/01/16 09:30:27;;;;;;;1.45;0.30;;;5.10;99.90;;;;;;4975343;28;20045;-73
2023/01/16 09:32:52;;;;;;;0.73;0.60;;;5.10;99.90;;;;;;4992423;28;20030;-73
2023/01/16 09:35:18;;;;;;;0.47;0.40;;;5.10;99.90;;;;;;4977253;28;20049;-73
2023/01/16 09:37:44;;;;;;;1.60;0.47;;;5.10;99.90;;;;;;4978057;28;20045;-74
2023/01/16 09:40:19;;;;;;;0.95;0.57;;;5.10;99.90;;;;;;4993972;28;20053;-73
2023/01/16 09:43:35;;;;;;;0.75;0.30;;;5.10;99.90;;;;;;4977316;28;20101;-77
2023/01/16 09:46:18;;;;;;;0.17;0.17;;;5.20;99.90;;;;;;4998418;28;20427;-76
2023/01/16 09:48:58;;;;;;;1.98;0.17;;;5.10;99.90;;;;;;4979210;28;20066;-75
2023/01/16 09:51:39;;;;;;;3.33;0.75;;;5.10;99.90;;;;;;4990642;28;20479;-74
2023/01/16 10:00:00;;;;;;;1.85;0.57;;;5.40;99.90;;;;;;4980038;28;20041;-74
2023/01/16 10:02:32;;;;;;;1.52;0.60;;;5.30;99.90;;;;;;4976225;28;20026;-75
2023/01/16 10:04:59;;;;;;;0.65;0.30;;;5.30;99.90;;;;;;4992334;28;20632;-75
2023/01/16 10:07:44;;;;;;;0.93;0.70;;;5.30;99.90;;;;;;4992172;28;20034;-74
2023/01/16 10:10:52;;;;;;;2.78;0.90;;;5.20;99.90;;;;;;4978927;28;20498;-74
2023/01/16 10:13:57;;;;;;;2.53;1.02;;;5.20;99.90;;;;;;4965689;28;20053;-73
2023/01/16 10:17:01;;;;;;;5.28;0.60;;;5.30;99.90;;;;;;4984481;28;20124;-74
2023/01/16 10:19:39;;;;;;;12.95;1.50;;;5.20;99.90;;;;;;4990979;28;20026;-75
2023/01/16 10:22:47;;;;;;;0.35;0.35;;;5.20;99.90;;;;;;4995498;28;20026;-74
2023/01/16 10:25:37;;;;;;;0.82;0.52;;;5.10;99.90;;;;;;4977109;28;20026;-73
2023/01/16 10:28:25;;;;;;;1.73;0.45;;;5.00;99.90;;;;;;4976966;28;20487;-74
2023/01/16 10:31:16;;;;;;;0.88;0.55;;;5.00;99.90;;;;;;4991661;28;20042;-74
2023/01/16 10:33:57;;;;;;;2.05;0.30;;;5.00;99.90;;;;;;4977708;28;20046;-75
2023/01/16 10:36:31;;;;;;;;;;;5.00;99.90;;;;;;4967830;28;20045;-75
2023/01/16 10:38:59;;;;;;;0.32;0.30;;;5.00;99.90;;;;;;4989947;28;19920;-74
2023/01/16 10:50:22;;;;;;;2.03;1.10;;;4.90;99.90;;;;;;4974311;28;20038;-73
2023/01/16 10:52:48;;;;;;;0.65;0.40;;;4.90;99.90;;;;;;4959961;28;20049;-73
2023/01/16 10:55:16;;;;;;;1.20;0.35;;;4.80;99.90;;;;;;4990509;28;20042;-74
2023/01/16 10:57:52;;;;;;;1.45;0.52;;;4.80;99.90;;;;;;4974531;28;20050;-72
2023/01/16 11:00:41;;;;;;;0.28;0.22;;;4.80;99.90;;;;;;4971939;28;20029;-69
2023/01/16 11:03:29;;;;;;;0.82;0.50;;;4.90;99.90;;;;;;4975925;28;20718;-70
2023/01/16 11:06:26;;;;;;;0.10;0.10;;;4.80;99.90;;;;;;4971884;28;20060;-68
2023/01/16 11:09:05;;;;;;;4.80;0.63;;;4.80;99.90;;;;;;4989589;28;20037;-68
2023/01/16 11:20:30;;;;;;;0.38;0.20;;;4.90;99.90;;;;;;4974120;28;20084;-70
2023/01/16 11:23:03;;;;;;;2.20;0.45;;;4.90;99.90;;;;;;4974554;28;20500;-73
2023/01/16 11:25:31;;;;;;;0.10;0.10;;;4.90;99.90;;;;;;4990684;28;20113;-74
2023/01/16 11:28:02;;;;;;;1.45;0.40;;;4.90;99.90;;;;;;4973438;28;20443;-77
2023/01/16 11:30:33;;;;;;;1.10;0.65;;;5.00;99.90;;;;;;4972494;28;20410;-77
2023/01/16 11:32:59;;;;;;;0.38;0.35;;;5.00;99.90;;;;;;4990286;28;20072;-76
2023/01/16 11:35:33;;;;;;;0.40;0.28;;;5.10;99.90;;;;;;4990258;28;20034;-75
2023/01/16 11:38:02;;;;;;;1.13;0.57;;;5.10;99.90;;;;;;4974929;28;20034;-76
2023/01/16 11:40:35;;;;;;;1.70;0.82;;;5.20;99.90;;;;;;4975820;28;20380;-78
2023/01/16 11:46:03;;;;;;;0.88;0.30;;;5.30;99.90;;;;;;4988279;28;20461;-76
2023/01/16 11:48:44;;;;;;;0.50;0.40;;;5.40;99.90;;;;;;4989602;28;20609;-76
2023/01/16 11:51:17;;;;;;;0.22;0.22;;;5.40;99.90;;;;;;4977440;28;20022;-74
2023/01/16 11:53:46;;;;;;;7.22;0.20;;;5.50;99.90;;;;;;4994429;28;20447;-74
2023/01/16 11:56:37;;;;;;;0.55;0.55;;;5.50;99.90;;;;;;4979473;28;20084;-75
2023/01/16 11:59:24;;;;;;;4.45;0.55;;;5.60;99.90;;;;;;4997588;28;20038;-76
2023/01/16 12:02:24;;;;;;;0.57;0.30;;;5.70;99.90;;;;;;4979212;28;20386;-77
2023/01/16 12:09:04;;;;;;;2.75;0.40;;;5.80;99.90;;;;;;4996260;28;20117;-77
2023/01/16 12:11:51;;;;;;;1.20;0.28;;;5.90;99.90;;;;;;4990568;28;20038;-76
2023/01/16 12:14:44;;;;;;;0.30;0.30;;;6.00;99.90;;;;;;4996501;28;20038;-76
2023/01/16 12:17:29;;;;;;;2.08;0.80;;;6.00;99.90;;;;;;4979649;28;20049;-76
2023/01/16 12:20:30;;;;;;;2.05;0.50;;;6.00;99.90;;;;;;4979074;28;20034;-77
2023/01/16 12:23:20;;;;;;;4.20;2.03;;;6.10;99.90;;;;;;4990138;28;20395;-77
2023/01/16 12:26:21;;;;;;;1.65;1.10;;;6.20;99.90;;;;;;4979753;28;20045;-77
2023/01/16 12:29:06;;;;;;;0.43;0.43;;;6.30;99.90;;;;;;4982126;28;20034;-77
2023/01/16 12:31:50;;;;;;;0.00;0.00;;;6.40;99.90;;;;;;4979217;28;20026;-77
2023/01/16 12:34:55;;;;;;;1.23;0.52;;;6.60;99.90;;;;;;4989699;28;20046;-76
2023/01/16 12:37:26;;;;;;;1.77;0.63;;;6.60;99.90;;;;;;4995419;28;20131;-76
2023/01/16 12:40:39;;;;;;;0.20;0.20;;;6.70;99.90;;;;;;4995462;28;20129;-76
2023/01/16 12:43:42;;;;;;;0.47;0.30;;;6.80;99.90;;;;;;4916992;29;20413;-77
2023/01/16 12:46:22;;;;;;;1.40;0.40;;;6.90;99.90;;;;;;4884965;29;20063;-76
2023/01/16 12:49:08;;;;;;;0.63;0.35;;;6.90;99.90;;;;;;4916914;29;20055;-76
2023/01/16 12:51:54;;;;;;;1.25;0.55;;;7.00;99.90;;;;;;4910069;29;20032;-76
2023/01/16 12:55:29;;;;;;;0.00;0.00;;;7.00;99.90;;;;;;4914892;29;20044;-75
2023/01/16 12:58:19;;;;;;;4.80;0.80;;;7.10;99.90;;;;;;4875474;29;20071;-77
2023/01/16 13:01:09;;;;;;;2.00;0.68;;;7.10;99.90;;;;;;4898263;29;20076;-77
2023/01/16 13:03:53;;;;;;;0.10;0.10;;;7.10;99.90;;;;;;4913179;29;20044;-77
2023/01/16 13:06:47;;;;;;;0.73;0.17;;;7.10;99.90;;;;;;4912008;29;20047;-77
2023/01/16 13:09:49;;;;;;;0.80;0.40;;;7.10;99.90;;;;;;4913548;29;20040;-76
2023/01/16 13:15:28;;;;;;;0.22;0.20;;;7.10;99.90;;;;;;4992642;28;20557;-75
2023/01/16 13:18:06;;;;;;;0.85;0.60;;;7.10;99.90;;;;;;4987186;28;20042;-75
2023/01/16 13:20:32;;;;;;;0.80;0.52;;;7.00;99.90;;;;;;4972763;28;20030;-76
2023/01/16 13:23:11;;;;;;;0.80;0.20;;;7.00;99.90;;;;;;4977426;28;20150;-76
2023/01/16 13:25:42;;;;;;;3.15;1.15;;;7.00;99.90;;;;;;4976046;28;20441;-80
2023/01/16 13:28:23;;;;;;;0.20;0.20;;;6.90;99.90;;;;;;4975909;28;20466;-74
2023/01/16 13:30:56;;;;;;;0.75;0.20;;;6.90;99.90;;;;;;4988129;28;20126;-75
2023/01/16 13:33:26;;;;;;;0.00;0.00;;;6.70;99.90;;;;;;4992368;28;20037;-77
2023/01/16 13:36:15;;;;;;;0.45;0.40;;;6.70;99.90;;;;;;4975315;28;20045;-73
2023/01/16 13:39:37;;;;;;;1.13;0.22;;;6.70;99.90;;;;;;4980276;28;20521;-73
2023/01/16 13:42:06;;;;;;;;;;;6.60;99.90;;;;;;4991136;28;20066;-79
2023/01/16 13:47:32;;;;;;;0.20;0.20;;;6.60;99.90;;;;;;4976744;28;20478;-80
2023/01/16 13:50:20;;;;;;;1.20;0.40;;;6.50;99.90;;;;;;4974180;28;20494;-80
2023/01/16 13:52:46;;;;;;;0.43;0.17;;;6.60;99.90;;;;;;4991023;28;20122;-78
2023/01/16 13:55:39;;;;;;;1.30;0.70;;;6.50;99.90;;;;;;4975371;28;20034;-79
2023/01/16 13:58:12;;;;;;;0.10;0.10;;;6.50;99.90;;;;;;4992767;28;20407;-81
2023/01/16 14:00:38;;;;;;;1.48;0.47;;;6.60;99.90;;;;;;4991765;28;20038;-80
2023/01/16 14:03:29;;;;;;;3.85;0.95;;;6.60;99.90;;;;;;4974239;28;20045;-81
2023/01/16 14:06:10;;;;;;;0.87;0.53;;;6.60;99.90;;;;;;4978592;28;20034;-81
2023/01/16 14:09:17;;;;;;;0.20;0.17;;;6.70;99.90;;;;;;4989861;28;20042;-79
2023/01/16 14:12:20;;;;;;;0.68;0.50;;;6.80;99.90;;;;;;4982922;28;20038;-79
2023/01/16 14:17:55;;;;;;;1.63;0.90;;;6.80;99.90;;;;;;4989311;28;20042;-79
2023/01/16 14:20:42;;;;;;;0.45;0.45;;;6.80;99.90;;;;;;4992896;28;20034;-80
2023/01/16 14:24:02;;;;;;;0.20;0.20;;;6.80;99.90;;;;;;4992451;28;20045;-80
2023/01/16 14:26:48;;;;;;;0.10;0.10;;;6.90;99.90;;;;;;4948063;28;20030;-79
2023/01/16 14:29:29;;;;;;;0.20;0.20;;;6.90;99.90;;;;;;4992034;28;20065;-79
2023/01/16 14:32:16;;;;;;;;;;;7.20;99.90;;;;;;4975444;28;20026;-80
2023/01/16 14:35:00;;;;;;;1.95;0.73;;;7.00;99.90;;;;;;4965880;28;20286;-80
2023/01/16 14:37:54;;;;;;;0.38;0.28;;;7.00;99.90;;;;;;4972514;28;20053;-81
2023/01/16 14:55:12;;;;;;;0.52;0.43;;;7.00;99.90;;;;;;4979668;28;20387;-80
2023/01/16 14:56:17;;;;;;;5.72;1.40;;;7.00;99.90;;;;;;4974477;28;20038;-80